sensor_id;sensor_type;location;lat;lon;timestamp;pressure;altitude;pressure_sealevel;temperature;humidity
75972;BME280;64651;47.540;19.088;2022-12-18T00:04:19;101899.56;;;-3.20;85.57
75972;BME280;64651;47.540;19.088;2022-12-18T00:09:23;101902.25;;;-3.20;85.43
75972;BME280;64651;47.540;19.088;2022-12-18T00:14:31;101913.22;;;-3.32;86.08
75972;BME280;64651;47.540;19.088;2022-12-18T00:19:33;101938.69;;;-3.53;86.54
75972;BME280;64651;47.540;19.088;2022-12-18T00:24:36;101957.22;;;-3.78;87.51
75972;BME280;64651;47.540;19.088;2022-12-18T00:29:38;101970.19;;;-3.63;87.55
75972;BME280;64651;47.540;19.088;2022-12-18T00:34:40;101983.66;;;-3.36;86.59
75972;BME280;64651;47.540;19.088;2022-12-18T00:39:42;101973.75;;;-3.36;86.06
75972;BME280;64651;47.540;19.088;2022-12-18T00:44:44;101975.25;;;-3.33;85.92
75972;BME280;64651;47.540;19.088;2022-12-18T00:49:46;101987.69;;;-3.50;86.32
75972;BME280;64651;47.540;19.088;2022-12-18T00:54:48;101992.50;;;-3.53;86.47
75972;BME280;64651;47.540;19.088;2022-12-18T00:59:51;101994.31;;;-3.44;86.35
75972;BME280;64651;47.540;19.088;2022-12-18T01:04:53;101995.63;;;-3.58;86.67
75972;BME280;64651;47.540;19.088;2022-12-18T01:09:55;102013.63;;;-3.58;86.71
75972;BME280;64651;47.540;19.088;2022-12-18T01:14:57;102014.59;;;-3.59;86.59
75972;BME280;64651;47.540;19.088;2022-12-18T01:20:00;102009.59;;;-3.45;86.39
75972;BME280;64651;47.540;19.088;2022-12-18T01:25:03;102030.06;;;-3.71;86.94
75972;BME280;64651;47.540;19.088;2022-12-18T01:30:06;102030.75;;;-3.59;86.84
75972;BME280;64651;47.540;19.088;2022-12-18T01:35:09;102023.59;;;-3.41;86.01
75972;BME280;64651;47.540;19.088;2022-12-18T01:40:11;102027.38;;;-3.34;85.61
75972;BME280;64651;47.540;19.088;2022-12-18T01:50:37;102039.25;;;-3.54;86.55
75972;BME280;64651;47.540;19.088;2022-12-18T01:55:45;102049.09;;;-3.45;86.36
75972;BME280;64651;47.540;19.088;2022-12-18T02:00:48;102058.16;;;-3.46;86.19
75972;BME280;64651;47.540;19.088;2022-12-18T02:06:13;102054.28;;;-3.61;86.58
75972;BME280;64651;47.540;19.088;2022-12-18T02:11:25;102057.63;;;-3.22;85.54
75972;BME280;64651;47.540;19.088;2022-12-18T02:16:59;102069.44;;;-3.33;85.75
75972;BME280;64651;47.540;19.088;2022-12-18T02:27:14;102082.41;;;-3.56;87.00
75972;BME280;64651;47.540;19.088;2022-12-18T02:32:25;102089.03;;;-3.50;86.11
75972;BME280;64651;47.540;19.088;2022-12-18T02:37:29;102097.59;;;-3.84;87.69
75972;BME280;64651;47.540;19.088;2022-12-18T02:42:32;102097.47;;;-3.73;87.56
75972;BME280;64651;47.540;19.088;2022-12-18T02:47:38;102097.19;;;-3.79;87.90
75972;BME280;64651;47.540;19.088;2022-12-18T03:03:26;102124.53;;;-4.13;88.85
75972;BME280;64651;47.540;19.088;2022-12-18T03:08:40;102132.31;;;-4.19;89.39
75972;BME280;64651;47.540;19.088;2022-12-18T03:13:52;102129.78;;;-4.11;89.48
75972;BME280;64651;47.540;19.088;2022-12-18T03:19:01;102131.00;;;-3.96;89.02
75972;BME280;64651;47.540;19.088;2022-12-18T03:24:07;102134.56;;;-3.86;88.63
75972;BME280;64651;47.540;19.088;2022-12-18T03:29:42;102145.47;;;-3.97;88.76
75972;BME280;64651;47.540;19.088;2022-12-18T03:34:43;102148.97;;;-3.96;88.78
75972;BME280;64651;47.540;19.088;2022-12-18T03:39:48;102165.41;;;-4.09;88.93
75972;BME280;64651;47.540;19.088;2022-12-18T03:45:02;102174.75;;;-4.23;89.40
75972;BME280;64651;47.540;19.088;2022-12-18T03:50:16;102176.28;;;-4.30;89.65
75972;BME280;64651;47.540;19.088;2022-12-18T03:55:21;102175.31;;;-4.00;88.47
75972;BME280;64651;47.540;19.088;2022-12-18T04:00:24;102180.09;;;-4.13;88.59
75972;BME280;64651;47.540;19.088;2022-12-18T04:05:27;102180.13;;;-4.23;88.87
75972;BME280;64651;47.540;19.088;2022-12-18T04:10:30;102188.59;;;-4.27;89.20
75972;BME280;64651;47.540;19.088;2022-12-18T04:15:34;102195.63;;;-4.36;89.38
75972;BME280;64651;47.540;19.088;2022-12-18T04:20:38;102196.75;;;-4.38;89.37
75972;BME280;64651;47.540;19.088;2022-12-18T04:25:40;102197.66;;;-4.28;89.42
75972;BME280;64651;47.540;19.088;2022-12-18T04:30:43;102196.37;;;-4.34;89.36
75972;BME280;64651;47.540;19.088;2022-12-18T04:35:46;102199.06;;;-4.24;88.83
75972;BME280;64651;47.540;19.088;2022-12-18T04:40:48;102202.16;;;-4.29;88.93
75972;BME280;64651;47.540;19.088;2022-12-18T04:45:50;102222.25;;;-4.23;88.80
75972;BME280;64651;47.540;19.088;2022-12-18T04:50:52;102215.16;;;-4.24;88.72
75972;BME280;64651;47.540;19.088;2022-12-18T05:01:06;102245.69;;;-4.35;89.07
75972;BME280;64651;47.540;19.088;2022-12-18T05:06:09;102235.88;;;-4.55;89.46
75972;BME280;64651;47.540;19.088;2022-12-18T05:11:13;102247.34;;;-4.43;89.35
75972;BME280;64651;47.540;19.088;2022-12-18T05:16:17;102249.91;;;-4.52;89.74
75972;BME280;64651;47.540;19.088;2022-12-18T05:21:19;102260.03;;;-4.55;89.64
75972;BME280;64651;47.540;19.088;2022-12-18T05:26:21;102257.16;;;-4.73;90.18
75972;BME280;64651;47.540;19.088;2022-12-18T05:31:24;102271.63;;;-4.64;90.11
75972;BME280;64651;47.540;19.088;2022-12-18T05:36:26;102281.97;;;-4.80;90.60
75972;BME280;64651;47.540;19.088;2022-12-18T05:41:28;102286.69;;;-4.73;90.58
75972;BME280;64651;47.540;19.088;2022-12-18T05:46:30;102287.84;;;-4.66;90.67
75972;BME280;64651;47.540;19.088;2022-12-18T05:51:32;102286.81;;;-4.74;90.63
75972;BME280;64651;47.540;19.088;2022-12-18T05:56:34;102291.00;;;-4.51;89.90
75972;BME280;64651;47.540;19.088;2022-12-18T06:01:36;102300.13;;;-4.63;89.93
75972;BME280;64651;47.540;19.088;2022-12-18T06:06:39;102310.28;;;-4.76;90.17
75972;BME280;64651;47.540;19.088;2022-12-18T06:11:41;102309.81;;;-4.51;89.26
75972;BME280;64651;47.540;19.088;2022-12-18T06:16:43;102319.44;;;-4.48;88.96
75972;BME280;64651;47.540;19.088;2022-12-18T06:21:46;102311.50;;;-4.50;88.92
75972;BME280;64651;47.540;19.088;2022-12-18T06:26:48;102312.44;;;-4.70;89.68
75972;BME280;64651;47.540;19.088;2022-12-18T06:31:50;102330.38;;;-4.92;90.45
75972;BME280;64651;47.540;19.088;2022-12-18T06:36:53;102334.75;;;-5.11;91.22
75972;BME280;64651;47.540;19.088;2022-12-18T06:41:55;102342.16;;;-5.04;91.59
75972;BME280;64651;47.540;19.088;2022-12-18T06:46:57;102348.06;;;-4.89;91.90
75972;BME280;64651;47.540;19.088;2022-12-18T06:51:59;102362.19;;;-4.87;92.14
75972;BME280;64651;47.540;19.088;2022-12-18T06:57:01;102361.28;;;-4.76;91.97
75972;BME280;64651;47.540;19.088;2022-12-18T07:02:03;102379.03;;;-4.64;91.72
75972;BME280;64651;47.540;19.088;2022-12-18T07:07:06;102386.66;;;-4.60;91.48
75972;BME280;64651;47.540;19.088;2022-12-18T07:12:09;102396.88;;;-4.54;91.32
75972;BME280;64651;47.540;19.088;2022-12-18T07:17:11;102402.13;;;-4.52;91.20
75972;BME280;64651;47.540;19.088;2022-12-18T07:22:13;102407.09;;;-4.47;91.07
75972;BME280;64651;47.540;19.088;2022-12-18T07:27:16;102414.34;;;-4.38;90.65
75972;BME280;64651;47.540;19.088;2022-12-18T07:32:18;102426.53;;;-4.34;90.64
75972;BME280;64651;47.540;19.088;2022-12-18T07:37:21;102432.16;;;-4.17;90.37
75972;BME280;64651;47.540;19.088;2022-12-18T07:42:23;102444.78;;;-4.07;89.75
75972;BME280;64651;47.540;19.088;2022-12-18T07:47:35;102444.31;;;-4.13;89.18
75972;BME280;64651;47.540;19.088;2022-12-18T07:52:37;102459.25;;;-3.99;88.60
75972;BME280;64651;47.540;19.088;2022-12-18T07:57:39;102461.19;;;-3.80;88.06
75972;BME280;64651;47.540;19.088;2022-12-18T08:02:52;102473.47;;;-3.78;87.79
75972;BME280;64651;47.540;19.088;2022-12-18T08:07:54;102475.56;;;-3.60;87.33
75972;BME280;64651;47.540;19.088;2022-12-18T08:12:56;102477.97;;;-3.57;86.93
75972;BME280;64651;47.540;19.088;2022-12-18T08:18:05;102493.63;;;-3.32;86.97
75972;BME280;64651;47.540;19.088;2022-12-18T08:23:14;102496.72;;;-3.27;85.93
75972;BME280;64651;47.540;19.088;2022-12-18T08:28:17;102499.03;;;-3.03;84.10
75972;BME280;64651;47.540;19.088;2022-12-18T08:33:19;102504.47;;;-2.84;82.92
75972;BME280;64651;47.540;19.088;2022-12-18T08:38:21;102504.59;;;-2.66;81.73
75972;BME280;64651;47.540;19.088;2022-12-18T08:43:24;102507.03;;;-2.54;81.20
75972;BME280;64651;47.540;19.088;2022-12-18T08:48:45;102495.81;;;-2.39;80.07
75972;BME280;64651;47.540;19.088;2022-12-18T08:53:47;102495.69;;;-2.38;79.43
75972;BME280;64651;47.540;19.088;2022-12-18T08:58:53;102509.97;;;-2.28;78.49
75972;BME280;64651;47.540;19.088;2022-12-18T09:03:56;102514.06;;;-2.05;77.18
75972;BME280;64651;47.540;19.088;2022-12-18T09:08:58;102516.88;;;-1.96;76.64
75972;BME280;64651;47.540;19.088;2022-12-18T09:14:01;102539.59;;;-1.89;76.32
75972;BME280;64651;47.540;19.088;2022-12-18T09:19:04;102534.87;;;-1.78;76.29
75972;BME280;64651;47.540;19.088;2022-12-18T09:24:12;102544.34;;;-1.74;76.38
75972;BME280;64651;47.540;19.088;2022-12-18T09:29:15;102535.03;;;-1.52;76.06
75972;BME280;64651;47.540;19.088;2022-12-18T09:34:19;102536.47;;;-1.48;74.21
75972;BME280;64651;47.540;19.088;2022-12-18T09:39:23;102530.38;;;-1.23;74.29
75972;BME280;64651;47.540;19.088;2022-12-18T09:44:29;102527.00;;;-1.07;73.67
75972;BME280;64651;47.540;19.088;2022-12-18T09:49:37;102527.03;;;-0.89;73.03
75972;BME280;64651;47.540;19.088;2022-12-18T09:54:44;102537.38;;;-0.67;71.63
75972;BME280;64651;47.540;19.088;2022-12-18T10:00:16;102534.91;;;-0.43;70.22
75972;BME280;64651;47.540;19.088;2022-12-18T10:10:51;102500.16;;;12.25;36.00
75972;BME280;64651;47.540;19.088;2022-12-18T10:21:18;102489.78;;;17.51;25.70
75972;BME280;64651;47.540;19.088;2022-12-18T10:26:24;102484.88;;;18.23;23.61
75972;BME280;64651;47.540;19.088;2022-12-18T10:31:26;102480.34;;;19.81;21.64
75972;BME280;64651;47.540;19.088;2022-12-18T10:36:29;102475.72;;;19.13;22.05
75972;BME280;64651;47.540;19.088;2022-12-18T10:41:31;102469.94;;;18.94;22.20
75972;BME280;64651;47.540;19.088;2022-12-18T10:46:34;102464.78;;;18.32;22.01
75972;BME280;64651;47.540;19.088;2022-12-18T10:51:37;102479.59;;;19.66;21.23
75972;BME280;64651;47.540;19.088;2022-12-18T10:56:40;102481.56;;;19.11;21.82
75972;BME280;64651;47.540;19.088;2022-12-18T11:06:54;102474.47;;;21.17;19.32
75972;BME280;64651;47.540;19.088;2022-12-18T11:12:03;102459.66;;;20.69;20.01
75972;BME280;64651;47.540;19.088;2022-12-18T11:28:01;102440.97;;;20.88;19.61
75972;BME280;64651;47.540;19.088;2022-12-18T11:38:21;102460.91;;;18.22;20.97
75972;BME280;64651;47.540;19.088;2022-12-18T11:43:29;102442.56;;;21.56;18.07
75972;BME280;64651;47.540;19.088;2022-12-18T11:48:43;102444.75;;;20.79;18.43
75972;BME280;64651;47.540;19.088;2022-12-18T11:53:47;102439.44;;;18.23;20.94
75972;BME280;64651;47.540;19.088;2022-12-18T11:59:25;102441.16;;;17.68;21.07
75972;BME280;64651;47.540;19.088;2022-12-18T12:04:39;102432.16;;;18.47;20.31
75972;BME280;64651;47.540;19.088;2022-12-18T12:15:06;102435.31;;;13.02;27.83
75972;BME280;64651;47.540;19.088;2022-12-18T12:20:49;102431.06;;;15.27;24.25
75972;BME280;64651;47.540;19.088;2022-12-18T12:26:03;102423.84;;;15.79;24.55
75972;BME280;64651;47.540;19.088;2022-12-18T12:31:42;102425.22;;;17.49;23.75
75972;BME280;64651;47.540;19.088;2022-12-18T12:37:03;102431.31;;;15.25;24.37
75972;BME280;64651;47.540;19.088;2022-12-18T12:42:22;102434.94;;;15.79;24.55
75972;BME280;64651;47.540;19.088;2022-12-18T12:47:49;102425.88;;;16.36;25.62
75972;BME280;64651;47.540;19.088;2022-12-18T12:52:54;102437.97;;;17.19;23.89
75972;BME280;64651;47.540;19.088;2022-12-18T12:58:08;102440.31;;;16.28;24.08
75972;BME280;64651;47.540;19.088;2022-12-18T13:09:00;102465.69;;;12.74;29.37
75972;BME280;64651;47.540;19.088;2022-12-18T13:14:02;102473.87;;;11.57;31.45
75972;BME280;64651;47.540;19.088;2022-12-18T13:19:23;102462.38;;;12.13;30.84
75972;BME280;64651;47.540;19.088;2022-12-18T13:24:30;102474.22;;;9.09;35.94
75972;BME280;64651;47.540;19.088;2022-12-18T13:29:44;102476.66;;;8.86;37.54
75972;BME280;64651;47.540;19.088;2022-12-18T13:34:48;102489.19;;;8.69;37.99
75972;BME280;64651;47.540;19.088;2022-12-18T13:39:50;102490.28;;;7.62;39.56
75972;BME280;64651;47.540;19.088;2022-12-18T13:44:53;102496.78;;;6.74;43.22
75972;BME280;64651;47.540;19.088;2022-12-18T13:49:56;102494.53;;;7.65;41.40
75972;BME280;64651;47.540;19.088;2022-12-18T13:55:01;102494.66;;;7.24;41.92
75972;BME280;64651;47.540;19.088;2022-12-18T14:05:31;102500.44;;;7.88;41.14
75972;BME280;64651;47.540;19.088;2022-12-18T14:10:35;102511.47;;;7.21;43.55
75972;BME280;64651;47.540;19.088;2022-12-18T14:15:50;102513.44;;;7.40;42.88
75972;BME280;64651;47.540;19.088;2022-12-18T14:20:56;102513.00;;;5.92;46.01
75972;BME280;64651;47.540;19.088;2022-12-18T14:26:43;102516.91;;;5.05;48.78
75972;BME280;64651;47.540;19.088;2022-12-18T14:31:29;102510.19;;;4.86;49.07
75972;BME280;64651;47.540;19.088;2022-12-18T14:36:31;102523.38;;;3.78;52.71
75972;BME280;64651;47.540;19.088;2022-12-18T14:41:33;102524.06;;;2.73;55.50
75972;BME280;64651;47.540;19.088;2022-12-18T14:51:47;102547.06;;;1.25;60.41
75972;BME280;64651;47.540;19.088;2022-12-18T14:57:41;102553.72;;;0.88;62.71
75972;BME280;64651;47.540;19.088;2022-12-18T15:02:27;102568.66;;;0.58;64.71
75972;BME280;64651;47.540;19.088;2022-12-18T15:07:46;102565.69;;;0.18;65.10
75972;BME280;64651;47.540;19.088;2022-12-18T15:17:59;102598.09;;;0.10;67.75
75972;BME280;64651;47.540;19.088;2022-12-18T15:23:01;102596.03;;;-0.14;67.73
75972;BME280;64651;47.540;19.088;2022-12-18T15:28:04;102599.66;;;-0.59;69.73
75972;BME280;64651;47.540;19.088;2022-12-18T15:33:25;102606.91;;;-1.14;70.75
75972;BME280;64651;47.540;19.088;2022-12-18T15:38:28;102606.56;;;-1.29;71.59
75972;BME280;64651;47.540;19.088;2022-12-18T15:43:30;102610.19;;;-1.57;71.50
75972;BME280;64651;47.540;19.088;2022-12-18T15:48:45;102622.16;;;-1.69;72.05
75972;BME280;64651;47.540;19.088;2022-12-18T15:53:48;102631.09;;;-1.69;73.50
75972;BME280;64651;47.540;19.088;2022-12-18T15:58:51;102636.53;;;-1.78;73.88
75972;BME280;64651;47.540;19.088;2022-12-18T16:03:54;102644.63;;;-1.97;74.53
75972;BME280;64651;47.540;19.088;2022-12-18T16:08:56;102661.94;;;-2.10;75.03
75972;BME280;64651;47.540;19.088;2022-12-18T16:13:59;102658.53;;;-2.21;75.76
75972;BME280;64651;47.540;19.088;2022-12-18T16:19:01;102665.34;;;-2.17;76.24
75972;BME280;64651;47.540;19.088;2022-12-18T16:24:04;102660.81;;;-2.26;76.76
75972;BME280;64651;47.540;19.088;2022-12-18T16:29:06;102676.66;;;-2.42;77.54
75972;BME280;64651;47.540;19.088;2022-12-18T16:34:23;102685.16;;;-2.47;78.14
75972;BME280;64651;47.540;19.088;2022-12-18T16:39:30;102688.09;;;-2.60;78.83
75972;BME280;64651;47.540;19.088;2022-12-18T16:44:33;102682.22;;;-2.74;80.10
75972;BME280;64651;47.540;19.088;2022-12-18T16:49:37;102685.97;;;-2.66;79.85
75972;BME280;64651;47.540;19.088;2022-12-18T16:54:39;102704.06;;;-2.77;80.63
75972;BME280;64651;47.540;19.088;2022-12-18T16:59:45;102695.13;;;-2.88;81.51
75972;BME280;64651;47.540;19.088;2022-12-18T17:04:47;102696.78;;;-2.87;81.97
75972;BME280;64651;47.540;19.088;2022-12-18T17:09:50;102692.34;;;-2.97;82.85
75972;BME280;64651;47.540;19.088;2022-12-18T17:14:52;102676.88;;;-3.05;83.57
75972;BME280;64651;47.540;19.088;2022-12-18T17:19:54;102684.78;;;-3.13;83.72
75972;BME280;64651;47.540;19.088;2022-12-18T17:24:56;102674.72;;;-3.11;84.04
75972;BME280;64651;47.540;19.088;2022-12-18T17:29:58;102688.00;;;-3.19;84.33
75972;BME280;64651;47.540;19.088;2022-12-18T17:35:00;102684.06;;;-3.15;84.35
75972;BME280;64651;47.540;19.088;2022-12-18T17:40:08;102687.69;;;-3.25;84.45
75972;BME280;64651;47.540;19.088;2022-12-18T17:45:11;102691.94;;;-3.23;84.68
75972;BME280;64651;47.540;19.088;2022-12-18T17:50:13;102691.84;;;-3.42;85.52
75972;BME280;64651;47.540;19.088;2022-12-18T17:55:15;102711.91;;;-3.46;86.11
75972;BME280;64651;47.540;19.088;2022-12-18T18:00:19;102706.00;;;-3.40;86.26
75972;BME280;64651;47.540;19.088;2022-12-18T18:05:21;102697.25;;;-3.42;85.97
75972;BME280;64651;47.540;19.088;2022-12-18T18:10:24;102691.19;;;-3.55;86.02
75972;BME280;64651;47.540;19.088;2022-12-18T18:15:26;102705.63;;;-3.56;85.94
75972;BME280;64651;47.540;19.088;2022-12-18T18:20:28;102700.66;;;-3.61;86.17
75972;BME280;64651;47.540;19.088;2022-12-18T18:25:35;102712.38;;;-3.62;86.56
75972;BME280;64651;47.540;19.088;2022-12-18T18:30:38;102715.19;;;-3.63;86.67
75972;BME280;64651;47.540;19.088;2022-12-18T18:35:42;102703.34;;;-3.61;86.74
75972;BME280;64651;47.540;19.088;2022-12-18T18:41:02;102722.22;;;-3.51;86.53
75972;BME280;64651;47.540;19.088;2022-12-18T18:46:06;102726.16;;;-3.55;86.71
75972;BME280;64651;47.540;19.088;2022-12-18T18:51:12;102733.00;;;-3.83;87.57
75972;BME280;64651;47.540;19.088;2022-12-18T18:56:23;102740.72;;;-3.90;88.24
75972;BME280;64651;47.540;19.088;2022-12-18T19:01:48;102748.34;;;-3.95;88.66
75972;BME280;64651;47.540;19.088;2022-12-18T19:06:51;102750.97;;;-3.84;88.51
75972;BME280;64651;47.540;19.088;2022-12-18T19:11:55;102748.94;;;-3.91;88.97
75972;BME280;64651;47.540;19.088;2022-12-18T19:17:16;102752.63;;;-3.92;89.32
75972;BME280;64651;47.540;19.088;2022-12-18T19:22:18;102757.47;;;-3.86;89.49
75972;BME280;64651;47.540;19.088;2022-12-18T19:27:20;102758.09;;;-3.94;89.98
75972;BME280;64651;47.540;19.088;2022-12-18T19:32:22;102764.47;;;-3.95;90.16
75972;BME280;64651;47.540;19.088;2022-12-18T19:37:25;102780.13;;;-4.00;90.60
75972;BME280;64651;47.540;19.088;2022-12-18T19:42:27;102779.16;;;-3.99;90.83
75972;BME280;64651;47.540;19.088;2022-12-18T19:47:36;102780.41;;;-4.03;91.00
75972;BME280;64651;47.540;19.088;2022-12-18T19:52:38;102796.78;;;-4.17;91.33
75972;BME280;64651;47.540;19.088;2022-12-18T19:57:40;102793.34;;;-4.19;91.70
75972;BME280;64651;47.540;19.088;2022-12-18T20:02:42;102799.59;;;-4.19;91.82
75972;BME280;64651;47.540;19.088;2022-12-18T20:07:45;102794.59;;;-4.23;91.97
75972;BME280;64651;47.540;19.088;2022-12-18T20:12:47;102799.56;;;-4.07;91.50
75972;BME280;64651;47.540;19.088;2022-12-18T20:17:49;102807.16;;;-4.13;91.64
75972;BME280;64651;47.540;19.088;2022-12-18T20:22:51;102808.28;;;-4.15;91.56
75972;BME280;64651;47.540;19.088;2022-12-18T20:27:53;102813.84;;;-4.07;91.33
75972;BME280;64651;47.540;19.088;2022-12-18T20:32:56;102826.34;;;-4.17;91.53
75972;BME280;64651;47.540;19.088;2022-12-18T20:37:58;102823.88;;;-4.20;91.64
75972;BME280;64651;47.540;19.088;2022-12-18T20:43:01;102824.75;;;-4.20;91.74
75972;BME280;64651;47.540;19.088;2022-12-18T20:48:04;102833.69;;;-4.30;92.03
75972;BME280;64651;47.540;19.088;2022-12-18T20:53:06;102818.66;;;-4.44;92.08
75972;BME280;64651;47.540;19.088;2022-12-18T20:58:08;102840.78;;;-4.40;92.03
75972;BME280;64651;47.540;19.088;2022-12-18T21:03:11;102834.78;;;-4.33;91.88
75972;BME280;64651;47.540;19.088;2022-12-18T21:08:13;102848.34;;;-4.34;91.83
75972;BME280;64651;47.540;19.088;2022-12-18T21:13:16;102849.09;;;-4.21;91.70
75972;BME280;64651;47.540;19.088;2022-12-18T21:18:19;102854.06;;;-4.17;91.97
75972;BME280;64651;47.540;19.088;2022-12-18T21:23:21;102853.97;;;-4.15;91.53
75972;BME280;64651;47.540;19.088;2022-12-18T21:28:23;102848.31;;;-4.12;91.31
75972;BME280;64651;47.540;19.088;2022-12-18T21:33:26;102850.91;;;-4.11;91.50
75972;BME280;64651;47.540;19.088;2022-12-18T21:38:28;102846.84;;;-4.05;91.57
75972;BME280;64651;47.540;19.088;2022-12-18T21:43:30;102843.28;;;-3.94;91.59
75972;BME280;64651;47.540;19.088;2022-12-18T21:48:51;102842.53;;;-3.74;91.31
75972;BME280;64651;47.540;19.088;2022-12-18T21:53:53;102826.97;;;-3.71;91.01
75972;BME280;64651;47.540;19.088;2022-12-18T21:58:55;102838.22;;;-3.77;90.80
75972;BME280;64651;47.540;19.088;2022-12-18T22:03:58;102836.19;;;-3.84;90.60
75972;BME280;64651;47.540;19.088;2022-12-18T22:09:00;102833.13;;;-3.80;90.41
75972;BME280;64651;47.540;19.088;2022-12-18T22:14:02;102834.69;;;-3.77;90.24
75972;BME280;64651;47.540;19.088;2022-12-18T22:19:05;102838.34;;;-3.67;89.45
75972;BME280;64651;47.540;19.088;2022-12-18T22:24:12;102848.94;;;-3.65;88.90
75972;BME280;64651;47.540;19.088;2022-12-18T22:29:17;102834.47;;;-3.96;89.58
75972;BME280;64651;47.540;19.088;2022-12-18T22:34:38;102841.00;;;-4.10;90.11
75972;BME280;64651;47.540;19.088;2022-12-18T22:39:40;102833.28;;;-4.15;90.39
75972;BME280;64651;47.540;19.088;2022-12-18T22:44:43;102842.72;;;-4.31;91.03
75972;BME280;64651;47.540;19.088;2022-12-18T22:49:45;102855.78;;;-4.38;91.33
75972;BME280;64651;47.540;19.088;2022-12-18T22:54:47;102852.50;;;-4.41;91.74
75972;BME280;64651;47.540;19.088;2022-12-18T22:59:50;102850.66;;;-4.52;91.91
75972;BME280;64651;47.540;19.088;2022-12-18T23:04:52;102866.63;;;-4.51;92.01
75972;BME280;64651;47.540;19.088;2022-12-18T23:09:54;102865.78;;;-4.51;92.12
75972;BME280;64651;47.540;19.088;2022-12-18T23:15:03;102865.44;;;-4.58;92.25
75972;BME280;64651;47.540;19.088;2022-12-18T23:20:05;102866.25;;;-4.57;92.36
75972;BME280;64651;47.540;19.088;2022-12-18T23:25:08;102874.47;;;-4.25;92.05
75972;BME280;64651;47.540;19.088;2022-12-18T23:30:11;102871.75;;;-3.81;91.16
75972;BME280;64651;47.540;19.088;2022-12-18T23:35:13;102865.22;;;-3.24;89.63
75972;BME280;64651;47.540;19.088;2022-12-18T23:40:16;102858.09;;;-2.93;87.74
75972;BME280;64651;47.540;19.088;2022-12-18T23:45:19;102864.44;;;-2.73;86.57
75972;BME280;64651;47.540;19.088;2022-12-18T23:50:21;102857.66;;;-2.68;86.04
75972;BME280;64651;47.540;19.088;2022-12-18T23:55:30;102858.84;;;-2.61;85.96
